Station Historical Data
Daily Summary for April 21, 2012 Units:  Both    English   Metric
« Previous Day
Next Day »
Daily Weekly Monthly Yearly Custom
  High: Low: Average:
Temperature: 61.4 °F /  16.3 °C 47.7 °F /  8.7 °C 51 °F /  10.6 °C
Dew Point: 57.8 °F /  14.3 °C 44.1 °F /  6.7 °C 48.6 °F /  9.2 °C
Humidity: 95% 86% 91%
Wind Speed: 14.0mph /  22.5km/h - 6mph /  9.7km/h
Wind Gust: 19.0mph /  30.6km/h - -
Wind- - WSW
Pressure: 29.91 in /  1012.8 hPa 29.77 in /  1008 hPa -
Precipitation: 0.54 in /  13.72 mm    
Historical Graphs
 
 
Tabular Data for April 21, 2012
Time Temperature Dew Point Pressure Wind Wind Speed Wind Gust Humidity Rainfall Rate (Hourly) Conditions
00:00 61.4 °F /  16.3 °C 57.8 °F /  14.3 °C 29.78in /  1008.4hPa Calm   2.0mph /  3.2km/h 88% 0.00in /  0mm
00:05 61.0 °F /  16.1 °C 57.4 °F /  14.1 °C 29.78in /  1008.4hPa North 1.0mph /  1.6km/h 1.0mph /  1.6km/h 88% 0.00in /  0mm
00:11 60.6 °F /  15.9 °C 57.3 °F /  14.1 °C 29.78in /  1008.4hPa NE 1.0mph /  1.6km/h 3.0mph /  4.8km/h 89% 0.00in /  0mm
00:15 60.4 °F /  15.8 °C 57.5 °F /  14.2 °C 29.78in /  1008.4hPa NNE 1.0mph /  1.6km/h 2.0mph /  3.2km/h 90% 0.00in /  0mm
00:20 60.3 °F /  15.7 °C 57.4 °F /  14.1 °C 29.78in /  1008.4hPa North 1.0mph /  1.6km/h 2.0mph /  3.2km/h 90% 0.00in /  0mm
00:26 60.1 °F /  15.6 °C 57.2 °F /  14 °C 29.79in /  1008.7hPa NNW 1.0mph /  1.6km/h 2.0mph /  3.2km/h 90% 0.00in /  0mm
00:31 59.9 °F /  15.5 °C 57.0 °F /  13.9 °C 29.79in /  1008.7hPa NW 2.0mph /  3.2km/h 3.0mph /  4.8km/h 90% 0.00in /  0mm
00:36 59.8 °F /  15.4 °C 57.2 °F /  14 °C 29.79in /  1008.7hPa WNW 2.0mph /  3.2km/h 4.0mph /  6.4km/h 91% 0.00in /  0mm
00:41 59.7 °F /  15.4 °C 57.1 °F /  13.9 °C 29.79in /  1008.7hPa NNW 1.0mph /  1.6km/h 2.0mph /  3.2km/h 91% 0.00in /  0mm
00:46 59.7 °F /  15.4 °C 57.1 °F /  13.9 °C 29.79in /  1008.7hPa NNW 2.0mph /  3.2km/h 2.0mph /  3.2km/h 91% 0.00in /  0mm
00:51 59.6 °F /  15.3 °C 57.0 °F /  13.9 °C 29.79in /  1008.7hPa NW 2.0mph /  3.2km/h 2.0mph /  3.2km/h 91% 0.00in /  0mm
00:56 59.5 °F /  15.3 °C 56.9 °F /  13.8 °C 29.79in /  1008.7hPa North 1.0mph /  1.6km/h 2.0mph /  3.2km/h 91% 0.00in /  0mm
01:00 59.3 °F /  15.2 °C 56.7 °F /  13.7 °C 29.79in /  1008.7hPa NNE 1.0mph /  1.6km/h 2.0mph /  3.2km/h 91% 0.00in /  0mm
01:01 59.3 °F /  15.2 °C 56.7 °F /  13.7 °C 29.79in /  1008.7hPa NNE 1.0mph /  1.6km/h 2.0mph /  3.2km/h 91% 0.00in /  0mm
01:06 59.2 °F /  15.1 °C 56.9 °F /  13.8 °C 29.80in /  1009hPa North 1.0mph /  1.6km/h 2.0mph /  3.2km/h 92% 0.00in /  0mm
01:11 59.0 °F /  15 °C 56.7 °F /  13.7 °C 29.80in /  1009hPa Calm   1.0mph /  1.6km/h 92% 0.00in /  0mm
01:16 58.8 °F /  14.9 °C 56.5 °F /  13.6 °C 29.80in /  1009hPa WNW 2.0mph /  3.2km/h 2.0mph /  3.2km/h 92% 0.00in /  0mm
01:21 58.6 °F /  14.8 °C 56.3 °F /  13.5 °C 29.80in /  1009hPa NW 2.0mph /  3.2km/h 2.0mph /  3.2km/h 92% 0.00in /  0mm
01:26 58.6 °F /  14.8 °C 56.6 °F /  13.7 °C 29.80in /  1009hPa NW 3.0mph /  4.8km/h 3.0mph /  4.8km/h 93% 0.00in /  0mm
01:30 58.8 °F /  14.9 °C 56.8 °F /  13.8 °C 29.80in /  1009hPa NW 3.0mph /  4.8km/h 4.0mph /  6.4km/h 93% 0.00in /  0mm
01:31 58.8 °F /  14.9 °C 56.8 °F /  13.8 °C 29.80in /  1009hPa NNW 2.0mph /  3.2km/h 4.0mph /  6.4km/h 93% 0.00in /  0mm
01:36 59.0 °F /  15 °C 57.0 °F /  13.9 °C 29.79in /  1008.7hPa NNW 2.0mph /  3.2km/h 5.0mph /  8km/h 93% 0.00in /  0mm
01:41 59.0 °F /  15 °C 57.0 °F /  13.9 °C 29.79in /  1008.7hPa NE 1.0mph /  1.6km/h 4.0mph /  6.4km/h 93% 0.00in /  0mm
01:46 59.1 °F /  15.1 °C 56.8 °F /  13.8 °C 29.78in /  1008.4hPa NE 1.0mph /  1.6km/h 5.0mph /  8km/h 92% 0.00in /  0mm
01:51 59.0 °F /  15 °C 56.7 °F /  13.7 °C 29.78in /  1008.4hPa Calm   2.0mph /  3.2km/h 92% 0.00in /  0mm
01:56 59.0 °F /  15 °C 56.7 °F /  13.7 °C 29.78in /  1008.4hPa Calm   2.0mph /  3.2km/h 92% 0.00in /  0mm
02:01 58.8 °F /  14.9 °C 56.5 °F /  13.6 °C 29.78in /  1008.4hPa NNW 1.0mph /  1.6km/h 1.0mph /  1.6km/h 92% 0.00in /  0mm
02:06 58.6 °F /  14.8 °C 56.3 °F /  13.5 °C 29.78in /  1008.4hPa NNW 1.0mph /  1.6km/h 1.0mph /  1.6km/h 92% 0.00in /  0mm
02:11 58.5 °F /  14.7 °C 56.5 °F /  13.6 °C 29.78in /  1008.4hPa Calm   1.0mph /  1.6km/h 93% 0.00in /  0mm
02:16 58.4 °F /  14.7 °C 56.4 °F /  13.6 °C 29.78in /  1008.4hPa NE 1.0mph /  1.6km/h 1.0mph /  1.6km/h 93% 0.00in /  0mm
02:21 58.4 °F /  14.7 °C 56.4 °F /  13.6 °C 29.78in /  1008.4hPa Calm   1.0mph /  1.6km/h 93% 0.00in /  0mm
02:26 58.4 °F /  14.7 °C 56.4 °F /  13.6 °C 29.78in /  1008.4hPa NNW 1.0mph /  1.6km/h 2.0mph /  3.2km/h 93% 0.00in /  0mm
02:30 58.4 °F /  14.7 °C 56.4 °F /  13.6 °C 29.78in /  1008.4hPa NNW 1.0mph /  1.6km/h 2.0mph /  3.2km/h 93% 0.00in /  0mm
02:32 58.4 °F /  14.7 °C 56.4 °F /  13.6 °C 29.78in /  1008.4hPa NNW 2.0mph /  3.2km/h 2.0mph /  3.2km/h 93% 0.00in /  0mm
02:37 58.3 °F /  14.6 °C 56.3 °F /  13.5 °C 29.78in /  1008.4hPa Calm   1.0mph /  1.6km/h 93% 0.00in /  0mm
02:42 58.3 °F /  14.6 °C 56.3 °F /  13.5 °C 29.78in /  1008.4hPa NNE 1.0mph /  1.6km/h 2.0mph /  3.2km/h 93% 0.00in /  0mm
02:47 58.4 °F /  14.7 °C 56.7 °F /  13.7 °C 29.77in /  1008hPa NE 1.0mph /  1.6km/h 3.0mph /  4.8km/h 94% 0.00in /  0mm
02:52 58.6 °F /  14.8 °C 56.9 °F /  13.8 °C 29.77in /  1008hPa NNE 1.0mph /  1.6km/h 2.0mph /  3.2km/h 94% 0.00in /  0mm
03:00 58.5 °F /  14.7 °C 56.5 °F /  13.6 °C 29.78in /  1008.4hPa NE 1.0mph /  1.6km/h 4.0mph /  6.4km/h 93% 0.00in /  0mm
03:30 58.8 °F /  14.9 °C 56.8 °F /  13.8 °C 29.77in /  1008hPa NW 1.0mph /  1.6km/h 4.0mph /  6.4km/h 93% 0.00in /  0mm
04:00 58.9 °F /  14.9 °C 56.6 °F /  13.7 °C 29.78in /  1008.4hPa NNW 6.0mph /  9.7km/h 15.0mph /  24.1km/h 92% 0.00in /  0mm
04:30 55.1 °F /  12.8 °C 53.4 °F /  11.9 °C 29.78in /  1008.4hPa NW 9.0mph /  14.5km/h 19.0mph /  30.6km/h 94% 0.75in /  19.05mm
05:00 52.3 °F /  11.3 °C 50.9 °F /  10.5 °C 29.79in /  1008.7hPa NNW 8.0mph /  12.9km/h 15.0mph /  24.1km/h 95% 0.90in /  22.86mm
05:30 51.3 °F /  10.7 °C 49.9 °F /  9.9 °C 29.80in /  1009hPa NW 6.0mph /  9.7km/h 15.0mph /  24.1km/h 95% 1.13in /  28.7mm
05:43 50.4 °F /  10.2 °C 49.0 °F /  9.4 °C 29.80in /  1009hPa WNW 6.0mph /  9.7km/h 6.0mph /  9.7km/h 95% 0.10in /  2.54mm
05:48 50.3 °F /  10.2 °C 48.9 °F /  9.4 °C 29.80in /  1009hPa NW 8.0mph /  12.9km/h 9.0mph /  14.5km/h 95% 0.09in /  2.29mm
05:54 50.1 °F /  10.1 °C 48.7 °F /  9.3 °C 29.81in /  1009.4hPa WNW 9.0mph /  14.5km/h 10.0mph /  16.1km/h 95% 0.07in /  1.78mm
05:59 49.8 °F /  9.9 °C 48.4 °F /  9.1 °C 29.81in /  1009.4hPa NW 9.0mph /  14.5km/h 11.0mph /  17.7km/h 95% 0.07in /  1.78mm
06:04 49.6 °F /  9.8 °C 48.2 °F /  9 °C 29.81in /  1009.4hPa NW 8.0mph /  12.9km/h 14.0mph /  22.5km/h 95% 0.05in /  1.27mm
06:09 49.5 °F /  9.7 °C 48.1 °F /  8.9 °C 29.81in /  1009.4hPa NW 9.0mph /  14.5km/h 10.0mph /  16.1km/h 95% 0.04in /  1.02mm
06:14 49.4 °F /  9.7 °C 48.0 °F /  8.9 °C 29.81in /  1009.4hPa North 5.0mph /  8km/h 8.0mph /  12.9km/h 95% 0.04in /  1.02mm
06:19 49.2 °F /  9.6 °C 47.8 °F /  8.8 °C 29.80in /  1009hPa NNW 8.0mph /  12.9km/h 14.0mph /  22.5km/h 95% 0.05in /  1.27mm
06:24 49.0 °F /  9.4 °C 47.6 °F /  8.7 °C 29.81in /  1009.4hPa NW 11.0mph /  17.7km/h 16.0mph /  25.7km/h 95% 0.05in /  1.27mm
06:29 48.9 °F /  9.4 °C 47.5 °F /  8.6 °C 29.81in /  1009.4hPa NNW 13.0mph /  20.9km/h 14.0mph /  22.5km/h 95% 0.05in /  1.27mm
06:34 48.9 °F /  9.4 °C 47.5 °F /  8.6 °C 29.81in /  1009.4hPa NNW 5.0mph /  8km/h 13.0mph /  20.9km/h 95% 0.04in /  1.02mm
06:39 48.8 °F /  9.3 °C 47.4 °F /  8.6 °C 29.81in /  1009.4hPa NNW 9.0mph /  14.5km/h 12.0mph /  19.3km/h 95% 0.00in /  0mm
06:44 48.7 °F /  9.3 °C 47.3 °F /  8.5 °C 29.81in /  1009.4hPa NNW 9.0mph /  14.5km/h 17.0mph /  27.4km/h 95% 0.00in /  0mm
06:49 48.6 °F /  9.2 °C 47.2 °F /  8.4 °C 29.81in /  1009.4hPa NW 7.0mph /  11.3km/h 11.0mph /  17.7km/h 95% 0.00in /  0mm
06:54 48.5 °F /  9.2 °C 46.9 °F /  8.3 °C 29.81in /  1009.4hPa NNW 14.0mph /  22.5km/h 16.0mph /  25.7km/h 94% 0.00in /  0mm
06:59 48.4 °F /  9.1 °C 46.8 °F /  8.2 °C 29.81in /  1009.4hPa NNW 6.0mph /  9.7km/h 11.0mph /  17.7km/h 94% 0.00in /  0mm
07:04 48.4 °F /  9.1 °C 46.8 °F /  8.2 °C 29.81in /  1009.4hPa NNW 7.0mph /  11.3km/h 11.0mph /  17.7km/h 94% 0.00in /  0mm
07:09 48.3 °F /  9.1 °C 46.9 °F /  8.3 °C 29.81in /  1009.4hPa North 5.0mph /  8km/h 11.0mph /  17.7km/h 95% 0.00in /  0mm
07:14 48.3 °F /  9.1 °C 46.9 °F /  8.3 °C 29.82in /  1009.7hPa NNW 8.0mph /  12.9km/h 13.0mph /  20.9km/h 95% 0.00in /  0mm
07:19 48.2 °F /  9 °C 46.6 °F /  8.1 °C 29.82in /  1009.7hPa NW 10.0mph /  16.1km/h 13.0mph /  20.9km/h 94% 0.00in /  0mm
07:24 48.1 °F /  8.9 °C 46.5 °F /  8.1 °C 29.82in /  1009.7hPa NNW 7.0mph /  11.3km/h 14.0mph /  22.5km/h 94% 0.00in /  0mm
07:29 48.0 °F /  8.9 °C 46.4 °F /  8 °C 29.83in /  1010hPa NNW 11.0mph /  17.7km/h 14.0mph /  22.5km/h 94% 0.00in /  0mm
07:34 48.0 °F /  8.9 °C 46.4 °F /  8 °C 29.83in /  1010hPa NW 11.0mph /  17.7km/h 16.0mph /  25.7km/h 94% 0.00in /  0mm
07:39 47.9 °F /  8.8 °C 46.3 °F /  7.9 °C 29.83in /  1010hPa NW 7.0mph /  11.3km/h 12.0mph /  19.3km/h 94% 0.00in /  0mm
07:44 47.9 °F /  8.8 °C 46.3 °F /  7.9 °C 29.83in /  1010hPa NNE 10.0mph /  16.1km/h 11.0mph /  17.7km/h 94% 0.00in /  0mm
07:49 47.9 °F /  8.8 °C 46.3 °F /  7.9 °C 29.83in /  1010hPa NNE 10.0mph /  16.1km/h 11.0mph /  17.7km/h 94% 0.00in /  0mm
07:50 47.9 °F /  8.8 °C 46.3 °F /  7.9 °C 29.83in /  1010hPa NNW 5.0mph /  8km/h 11.0mph /  17.7km/h 94% 0.00in /  0mm
07:55 47.9 °F /  8.8 °C 46.3 °F /  7.9 °C 29.83in /  1010hPa North 8.0mph /  12.9km/h 12.0mph /  19.3km/h 94% 0.00in /  0mm
08:00 47.9 °F /  8.8 °C 46.3 °F /  7.9 °C 29.83in /  1010hPa NW 4.0mph /  6.4km/h 8.0mph /  12.9km/h 94% 0.00in /  0mm
08:05 47.8 °F /  8.8 °C 46.2 °F /  7.9 °C 29.83in /  1010hPa NNW 5.0mph /  8km/h 10.0mph /  16.1km/h 94% 0.00in /  0mm
08:10 47.9 °F /  8.8 °C 46.3 °F /  7.9 °C 29.83in /  1010hPa NNE 4.0mph /  6.4km/h 9.0mph /  14.5km/h 94% 0.00in /  0mm
08:15 47.9 °F /  8.8 °C 46.3 °F /  7.9 °C 29.82in /  1009.7hPa North 2.0mph /  3.2km/h 9.0mph /  14.5km/h 94% 0.00in /  0mm
08:20 48.0 °F /  8.9 °C 46.4 °F /  8 °C 29.82in /  1009.7hPa NE 3.0mph /  4.8km/h 9.0mph /  14.5km/h 94% 0.00in /  0mm
08:25 48.0 °F /  8.9 °C 46.4 °F /  8 °C 29.81in /  1009.4hPa North 5.0mph /  8km/h 7.0mph /  11.3km/h 94% 0.00in /  0mm
08:30 48.0 °F /  8.9 °C 46.4 °F /  8 °C 29.81in /  1009.4hPa NE 9.0mph /  14.5km/h 10.0mph /  16.1km/h 94% 0.00in /  0mm
08:36 48.1 °F /  8.9 °C 46.5 °F /  8.1 °C 29.81in /  1009.4hPa NE 2.0mph /  3.2km/h 8.0mph /  12.9km/h 94% 0.00in /  0mm
08:41 48.3 °F /  9.1 °C 46.7 °F /  8.2 °C 29.80in /  1009hPa North 6.0mph /  9.7km/h 10.0mph /  16.1km/h 94% 0.00in /  0mm
08:46 48.4 °F /  9.1 °C 46.8 °F /  8.2 °C 29.80in /  1009hPa NE 1.0mph /  1.6km/h 10.0mph /  16.1km/h 94% 0.00in /  0mm
08:51 48.6 °F /  9.2 °C 47.0 °F /  8.3 °C 29.79in /  1008.7hPa NNE 8.0mph /  12.9km/h 13.0mph /  20.9km/h 94% 0.00in /  0mm
08:56 48.9 °F /  9.4 °C 47.2 °F /  8.4 °C 29.80in /  1009hPa NNE 8.0mph /  12.9km/h 12.0mph /  19.3km/h 94% 0.00in /  0mm
09:01 49.3 °F /  9.6 °C 47.7 °F /  8.7 °C 29.81in /  1009.4hPa NNW 5.0mph /  8km/h 7.0mph /  11.3km/h 94% 0.00in /  0mm
09:06 49.5 °F /  9.7 °C 47.8 °F /  8.8 °C 29.82in /  1009.7hPa NW 6.0mph /  9.7km/h 8.0mph /  12.9km/h 94% 0.00in /  0mm
09:11 49.5 °F /  9.7 °C 47.8 °F /  8.8 °C 29.82in /  1009.7hPa NNW 7.0mph /  11.3km/h 12.0mph /  19.3km/h 94% 0.00in /  0mm
09:16 49.6 °F /  9.8 °C 48.0 °F /  8.9 °C 29.83in /  1010hPa NW 4.0mph /  6.4km/h 8.0mph /  12.9km/h 94% 0.00in /  0mm
09:21 49.7 °F /  9.8 °C 48.0 °F /  8.9 °C 29.83in /  1010hPa NW 5.0mph /  8km/h 8.0mph /  12.9km/h 94% 0.00in /  0mm
09:26 49.6 °F /  9.8 °C 47.7 °F /  8.7 °C 29.83in /  1010hPa NW 5.0mph /  8km/h 9.0mph /  14.5km/h 93% 0.00in /  0mm
09:31 49.5 °F /  9.7 °C 47.6 °F /  8.7 °C 29.84in /  1010.4hPa WNW 5.0mph /  8km/h 12.0mph /  19.3km/h 93% 0.00in /  0mm
09:36 49.5 °F /  9.7 °C 47.8 °F /  8.8 °C 29.85in /  1010.7hPa NNW 7.0mph /  11.3km/h 8.0mph /  12.9km/h 94% 0.00in /  0mm
09:41 49.2 °F /  9.6 °C 47.3 °F /  8.5 °C 29.84in /  1010.4hPa NNW 5.0mph /  8km/h 11.0mph /  17.7km/h 93% 0.00in /  0mm
09:46 49.2 °F /  9.6 °C 47.5 °F /  8.6 °C 29.84in /  1010.4hPa NNW 8.0mph /  12.9km/h 9.0mph /  14.5km/h 94% 0.00in /  0mm
09:51 48.9 °F /  9.4 °C 47.2 °F /  8.4 °C 29.84in /  1010.4hPa NNW 8.0mph /  12.9km/h 11.0mph /  17.7km/h 94% 0.00in /  0mm
09:56 49.0 °F /  9.4 °C 47.3 °F /  8.5 °C 29.85in /  1010.7hPa NNW 7.0mph /  11.3km/h 10.0mph /  16.1km/h 94% 0.00in /  0mm
10:01 48.8 °F /  9.3 °C 47.2 °F /  8.4 °C 29.85in /  1010.7hPa NNW 4.0mph /  6.4km/h 10.0mph /  16.1km/h 94% 0.00in /  0mm
10:06 48.7 °F /  9.3 °C 47.0 °F /  8.3 °C 29.85in /  1010.7hPa NNW 3.0mph /  4.8km/h 6.0mph /  9.7km/h 94% 0.00in /  0mm
10:11 48.8 °F /  9.3 °C 47.2 °F /  8.4 °C 29.85in /  1010.7hPa NNE 4.0mph /  6.4km/h 9.0mph /  14.5km/h 94% 0.00in /  0mm
10:16 48.9 °F /  9.4 °C 47.2 °F /  8.4 °C 29.85in /  1010.7hPa NW 7.0mph /  11.3km/h 10.0mph /  16.1km/h 94% 0.00in /  0mm
10:21 48.9 °F /  9.4 °C 47.2 °F /  8.4 °C 29.85in /  1010.7hPa NNE 8.0mph /  12.9km/h 12.0mph /  19.3km/h 94% 0.00in /  0mm
10:26 48.8 °F /  9.3 °C 47.2 °F /  8.4 °C 29.85in /  1010.7hPa North 9.0mph /  14.5km/h 9.0mph /  14.5km/h 94% 0.00in /  0mm
10:31 48.8 °F /  9.3 °C 47.2 °F /  8.4 °C 29.86in /  1011.1hPa NW 8.0mph /  12.9km/h 10.0mph /  16.1km/h 94% 0.00in /  0mm
10:36 48.9 °F /  9.4 °C 47.2 °F /  8.4 °C 29.85in /  1010.7hPa NNW 8.0mph /  12.9km/h 9.0mph /  14.5km/h 94% 0.00in /  0mm
10:41 48.9 °F /  9.4 °C 47.2 °F /  8.4 °C 29.86in /  1011.1hPa North 5.0mph /  8km/h 7.0mph /  11.3km/h 94% 0.00in /  0mm
10:46 49.0 °F /  9.4 °C 47.3 °F /  8.5 °C 29.86in /  1011.1hPa NNE 5.0mph /  8km/h 7.0mph /  11.3km/h 94% 0.00in /  0mm
10:52 49.1 °F /  9.5 °C 47.5 °F /  8.6 °C 29.86in /  1011.1hPa NE 3.0mph /  4.8km/h 6.0mph /  9.7km/h 94% 0.00in /  0mm
10:58 49.2 °F /  9.6 °C 47.5 °F /  8.6 °C 29.86in /  1011.1hPa NE 6.0mph /  9.7km/h 7.0mph /  11.3km/h 94% 0.00in /  0mm
11:04 49.2 °F /  9.6 °C 47.5 °F /  8.6 °C 29.86in /  1011.1hPa North 1.0mph /  1.6km/h 5.0mph /  8km/h 94% 0.00in /  0mm
11:09 49.2 °F /  9.6 °C 47.5 °F /  8.6 °C 29.86in /  1011.1hPa NE 4.0mph /  6.4km/h 7.0mph /  11.3km/h 94% 0.00in /  0mm
11:14 49.4 °F /  9.7 °C 47.8 °F /  8.8 °C 29.86in /  1011.1hPa NNE 6.0mph /  9.7km/h 7.0mph /  11.3km/h 94% 0.00in /  0mm
11:19 49.4 °F /  9.7 °C 47.8 °F /  8.8 °C 29.85in /  1010.7hPa NW 5.0mph /  8km/h 11.0mph /  17.7km/h 94% 0.00in /  0mm
11:24 49.7 °F /  9.8 °C 48.0 °F /  8.9 °C 29.85in /  1010.7hPa NW 4.0mph /  6.4km/h 8.0mph /  12.9km/h 94% 0.00in /  0mm
11:29 49.7 °F /  9.8 °C 48.0 °F /  8.9 °C 29.85in /  1010.7hPa North 11.0mph /  17.7km/h 13.0mph /  20.9km/h 94% 0.00in /  0mm
11:34 49.8 °F /  9.9 °C 48.2 °F /  9 °C 29.84in /  1010.4hPa NNW 7.0mph /  11.3km/h 11.0mph /  17.7km/h 94% 0.00in /  0mm
11:39 50.0 °F /  10 °C 48.3 °F /  9.1 °C 29.84in /  1010.4hPa NNW 9.0mph /  14.5km/h 12.0mph /  19.3km/h 94% 0.00in /  0mm
11:44 50.2 °F /  10.1 °C 48.5 °F /  9.2 °C 29.84in /  1010.4hPa NNW 7.0mph /  11.3km/h 9.0mph /  14.5km/h 94% 0.00in /  0mm
11:49 50.2 °F /  10.1 °C 48.3 °F /  9.1 °C 29.85in /  1010.7hPa NW 7.0mph /  11.3km/h 10.0mph /  16.1km/h 93% 0.00in /  0mm
11:54 50.3 °F /  10.2 °C 48.4 °F /  9.1 °C 29.84in /  1010.4hPa NW 5.0mph /  8km/h 11.0mph /  17.7km/h 93% 0.00in /  0mm
11:59 50.8 °F /  10.4 °C 48.8 °F /  9.3 °C 29.84in /  1010.4hPa NNW 3.0mph /  4.8km/h 10.0mph /  16.1km/h 93% 0.00in /  0mm
12:04 51.2 °F /  10.7 °C 49.2 °F /  9.6 °C 29.85in /  1010.7hPa NNW 9.0mph /  14.5km/h 9.0mph /  14.5km/h 93% 0.00in /  0mm
12:09 51.2 °F /  10.7 °C 49.0 °F /  9.4 °C 29.85in /  1010.7hPa NW 11.0mph /  17.7km/h 11.0mph /  17.7km/h 92% 0.00in /  0mm
12:14 50.8 °F /  10.4 °C 48.6 °F /  9.2 °C 29.84in /  1010.4hPa North 10.0mph /  16.1km/h 14.0mph /  22.5km/h 92% 0.00in /  0mm
12:19 50.8 °F /  10.4 °C 48.8 °F /  9.3 °C 29.84in /  1010.4hPa NW 7.0mph /  11.3km/h 9.0mph /  14.5km/h 93% 0.00in /  0mm
12:24 51.0 °F /  10.6 °C 49.0 °F /  9.4 °C 29.85in /  1010.7hPa NNE 4.0mph /  6.4km/h 10.0mph /  16.1km/h 93% 0.00in /  0mm
12:29 51.1 °F /  10.6 °C 48.9 °F /  9.4 °C 29.85in /  1010.7hPa NW 7.0mph /  11.3km/h 10.0mph /  16.1km/h 92% 0.00in /  0mm
12:34 51.2 °F /  10.7 °C 49.0 °F /  9.4 °C 29.85in /  1010.7hPa NW 7.0mph /  11.3km/h 10.0mph /  16.1km/h 92% 0.00in /  0mm
12:40 51.5 °F /  10.8 °C 49.0 °F /  9.4 °C 29.85in /  1010.7hPa North 5.0mph /  8km/h 11.0mph /  17.7km/h 91% 0.00in /  0mm
12:46 51.7 °F /  10.9 °C 49.2 °F /  9.6 °C 29.85in /  1010.7hPa NW 4.0mph /  6.4km/h 10.0mph /  16.1km/h 91% 0.00in /  0mm
12:51 52.0 °F /  11.1 °C 49.2 °F /  9.6 °C 29.85in /  1010.7hPa NNE 3.0mph /  4.8km/h 9.0mph /  14.5km/h 90% 0.00in /  0mm
12:56 52.2 °F /  11.2 °C 49.4 °F /  9.7 °C 29.85in /  1010.7hPa NNW 6.0mph /  9.7km/h 7.0mph /  11.3km/h 90% 0.00in /  0mm
13:01 52.4 °F /  11.3 °C 49.6 °F /  9.8 °C 29.85in /  1010.7hPa NNW 6.0mph /  9.7km/h 8.0mph /  12.9km/h 90% 0.00in /  0mm
13:06 52.5 °F /  11.4 °C 49.7 °F /  9.8 °C 29.85in /  1010.7hPa NW 6.0mph /  9.7km/h 9.0mph /  14.5km/h 90% 0.00in /  0mm
13:12 52.3 °F /  11.3 °C 49.5 °F /  9.7 °C 29.86in /  1011.1hPa NNE 12.0mph /  19.3km/h 12.0mph /  19.3km/h 90% 0.00in /  0mm
13:17 52.2 °F /  11.2 °C 49.4 °F /  9.7 °C 29.86in /  1011.1hPa NW 4.0mph /  6.4km/h 9.0mph /  14.5km/h 90% 0.00in /  0mm
13:23 52.1 °F /  11.2 °C 49.3 °F /  9.6 °C 29.86in /  1011.1hPa NW 8.0mph /  12.9km/h 11.0mph /  17.7km/h 90% 0.00in /  0mm
13:27 52.3 °F /  11.3 °C 49.5 °F /  9.7 °C 29.86in /  1011.1hPa NNW 7.0mph /  11.3km/h 12.0mph /  19.3km/h 90% 0.00in /  0mm
13:33 52.0 °F /  11.1 °C 49.2 °F /  9.6 °C 29.87in /  1011.4hPa NW 5.0mph /  8km/h 10.0mph /  16.1km/h 90% 0.00in /  0mm
13:38 51.4 °F /  10.8 °C 48.9 °F /  9.4 °C 29.87in /  1011.4hPa NNW 7.0mph /  11.3km/h 11.0mph /  17.7km/h 91% 0.00in /  0mm
13:43 51.0 °F /  10.6 °C 48.8 °F /  9.3 °C 29.87in /  1011.4hPa NNW 8.0mph /  12.9km/h 10.0mph /  16.1km/h 92% 0.00in /  0mm
13:48 50.7 °F /  10.4 °C 48.5 °F /  9.2 °C 29.86in /  1011.1hPa NNW 10.0mph /  16.1km/h 13.0mph /  20.9km/h 92% 0.00in /  0mm
13:53 50.5 °F /  10.3 °C 48.3 °F /  9.1 °C 29.87in /  1011.4hPa NNW 10.0mph /  16.1km/h 13.0mph /  20.9km/h 92% 0.00in /  0mm
13:58 50.5 °F /  10.3 °C 48.3 °F /  9.1 °C 29.86in /  1011.1hPa NNW 8.0mph /  12.9km/h 13.0mph /  20.9km/h 92% 0.00in /  0mm
14:03 50.9 °F /  10.5 °C 48.7 °F /  9.3 °C 29.86in /  1011.1hPa NNE 10.0mph /  16.1km/h 10.0mph /  16.1km/h 92% 0.00in /  0mm
14:08 51.3 °F /  10.7 °C 48.8 °F /  9.3 °C 29.86in /  1011.1hPa NW 8.0mph /  12.9km/h 10.0mph /  16.1km/h 91% 0.00in /  0mm
14:13 51.5 °F /  10.8 °C 48.7 °F /  9.3 °C 29.86in /  1011.1hPa North 6.0mph /  9.7km/h 9.0mph /  14.5km/h 90% 0.00in /  0mm
14:18 51.4 °F /  10.8 °C 48.6 °F /  9.2 °C 29.87in /  1011.4hPa NW 7.0mph /  11.3km/h 13.0mph /  20.9km/h 90% 0.00in /  0mm
14:23 50.8 °F /  10.4 °C 48.0 °F /  8.9 °C 29.87in /  1011.4hPa NW 5.0mph /  8km/h 13.0mph /  20.9km/h 90% 0.00in /  0mm
14:28 50.6 °F /  10.3 °C 48.4 °F /  9.1 °C 29.87in /  1011.4hPa NW 8.0mph /  12.9km/h 8.0mph /  12.9km/h 92% 0.00in /  0mm
14:33 50.4 °F /  10.2 °C 47.9 °F /  8.8 °C 29.87in /  1011.4hPa NW 7.0mph /  11.3km/h 10.0mph /  16.1km/h 91% 0.00in /  0mm
14:38 50.3 °F /  10.2 °C 48.1 °F /  8.9 °C 29.87in /  1011.4hPa NW 9.0mph /  14.5km/h 11.0mph /  17.7km/h 92% 0.00in /  0mm
14:43 50.3 °F /  10.2 °C 48.1 °F /  8.9 °C 29.87in /  1011.4hPa WNW 8.0mph /  12.9km/h 13.0mph /  20.9km/h 92% 0.00in /  0mm
14:48 50.3 °F /  10.2 °C 48.1 °F /  8.9 °C 29.86in /  1011.1hPa NNW 5.0mph /  8km/h 11.0mph /  17.7km/h 92% 0.00in /  0mm
14:53 50.4 °F /  10.2 °C 48.2 °F /  9 °C 29.86in /  1011.1hPa NNW 7.0mph /  11.3km/h 12.0mph /  19.3km/h 92% 0.00in /  0mm
14:58 50.7 °F /  10.4 °C 48.5 °F /  9.2 °C 29.87in /  1011.4hPa NW 8.0mph /  12.9km/h 11.0mph /  17.7km/h 92% 0.00in /  0mm
15:03 50.9 °F /  10.5 °C 48.4 °F /  9.1 °C 29.86in /  1011.1hPa North 11.0mph /  17.7km/h 13.0mph /  20.9km/h 91% 0.00in /  0mm
15:09 51.6 °F /  10.9 °C 49.1 °F /  9.5 °C 29.86in /  1011.1hPa North 11.0mph /  17.7km/h 13.0mph /  20.9km/h 91% 0.00in /  0mm
15:14 51.9 °F /  11.1 °C 49.1 °F /  9.5 °C 29.86in /  1011.1hPa NNW 5.0mph /  8km/h 9.0mph /  14.5km/h 90% 0.00in /  0mm
15:19 51.8 °F /  11 °C 48.7 °F /  9.3 °C 29.85in /  1010.7hPa North 7.0mph /  11.3km/h 14.0mph /  22.5km/h 89% 0.00in /  0mm
15:24 51.1 °F /  10.6 °C 48.3 °F /  9.1 °C 29.85in /  1010.7hPa NNW 8.0mph /  12.9km/h 12.0mph /  19.3km/h 90% 0.00in /  0mm
15:29 50.4 °F /  10.2 °C 47.6 °F /  8.7 °C 29.86in /  1011.1hPa NNW 14.0mph /  22.5km/h 14.0mph /  22.5km/h 90% 0.00in /  0mm
15:34 49.9 °F /  9.9 °C 47.4 °F /  8.6 °C 29.85in /  1010.7hPa NNE 10.0mph /  16.1km/h 14.0mph /  22.5km/h 91% 0.00in /  0mm
15:39 49.8 °F /  9.9 °C 47.6 °F /  8.7 °C 29.85in /  1010.7hPa NW 6.0mph /  9.7km/h 10.0mph /  16.1km/h 92% 0.00in /  0mm
15:44 50.0 °F /  10 °C 48.1 °F /  8.9 °C 29.86in /  1011.1hPa NNW 8.0mph /  12.9km/h 11.0mph /  17.7km/h 93% 0.00in /  0mm
15:49 50.6 °F /  10.3 °C 48.1 °F /  8.9 °C 29.86in /  1011.1hPa North 9.0mph /  14.5km/h 9.0mph /  14.5km/h 91% 0.00in /  0mm
15:54 51.2 °F /  10.7 °C 48.4 °F /  9.1 °C 29.85in /  1010.7hPa NNW 4.0mph /  6.4km/h 13.0mph /  20.9km/h 90% 0.00in /  0mm
15:59 51.3 °F /  10.7 °C 48.2 °F /  9 °C 29.85in /  1010.7hPa North 4.0mph /  6.4km/h 8.0mph /  12.9km/h 89% 0.00in /  0mm
16:04 51.4 °F /  10.8 °C 48.3 °F /  9.1 °C 29.85in /  1010.7hPa North 4.0mph /  6.4km/h 7.0mph /  11.3km/h 89% 0.00in /  0mm
16:09 51.4 °F /  10.8 °C 48.0 °F /  8.9 °C 29.85in /  1010.7hPa North 7.0mph /  11.3km/h 8.0mph /  12.9km/h 88% 0.00in /  0mm
16:14 51.4 °F /  10.8 °C 48.3 °F /  9.1 °C 29.85in /  1010.7hPa NNE 4.0mph /  6.4km/h 8.0mph /  12.9km/h 89% 0.00in /  0mm
16:19 51.2 °F /  10.7 °C 47.8 °F /  8.8 °C 29.85in /  1010.7hPa North 4.0mph /  6.4km/h 12.0mph /  19.3km/h 88% 0.00in /  0mm
16:24 51.1 °F /  10.6 °C 47.7 °F /  8.7 °C 29.85in /  1010.7hPa NNW 4.0mph /  6.4km/h 12.0mph /  19.3km/h 88% 0.00in /  0mm
16:29 51.3 °F /  10.7 °C 48.2 °F /  9 °C 29.85in /  1010.7hPa NNW 8.0mph /  12.9km/h 9.0mph /  14.5km/h 89% 0.00in /  0mm
16:34 51.4 °F /  10.8 °C 48.6 °F /  9.2 °C 29.86in /  1011.1hPa NNW 5.0mph /  8km/h 6.0mph /  9.7km/h 90% 0.00in /  0mm
16:40 51.4 °F /  10.8 °C 48.0 °F /  8.9 °C 29.85in /  1010.7hPa NW 6.0mph /  9.7km/h 12.0mph /  19.3km/h 88% 0.00in /  0mm
16:45 51.3 °F /  10.7 °C 47.9 °F /  8.8 °C 29.85in /  1010.7hPa NNE 8.0mph /  12.9km/h 13.0mph /  20.9km/h 88% 0.00in /  0mm
16:50 51.3 °F /  10.7 °C 47.9 °F /  8.8 °C 29.85in /  1010.7hPa NW 7.0mph /  11.3km/h 9.0mph /  14.5km/h 88% 0.00in /  0mm
16:55 51.2 °F /  10.7 °C 47.8 °F /  8.8 °C 29.85in /  1010.7hPa NNW 6.0mph /  9.7km/h 9.0mph /  14.5km/h 88% 0.00in /  0mm
17:00 51.0 °F /  10.6 °C 47.9 °F /  8.8 °C 29.85in /  1010.7hPa NW 6.0mph /  9.7km/h 7.0mph /  11.3km/h 89% 0.00in /  0mm
17:05 50.9 °F /  10.5 °C 48.1 °F /  8.9 °C 29.85in /  1010.7hPa North 5.0mph /  8km/h 10.0mph /  16.1km/h 90% 0.00in /  0mm
17:10 51.1 °F /  10.6 °C 48.3 °F /  9.1 °C 29.84in /  1010.4hPa NNW 5.0mph /  8km/h 7.0mph /  11.3km/h 90% 0.00in /  0mm
17:15 50.9 °F /  10.5 °C 47.8 °F /  8.8 °C 29.85in /  1010.7hPa NNW 6.0mph /  9.7km/h 9.0mph /  14.5km/h 89% 0.00in /  0mm
17:20 51.0 °F /  10.6 °C 47.9 °F /  8.8 °C 29.84in /  1010.4hPa NNW 10.0mph /  16.1km/h 12.0mph /  19.3km/h 89% 0.00in /  0mm
17:25 50.8 °F /  10.4 °C 47.7 °F /  8.7 °C 29.84in /  1010.4hPa NNW 9.0mph /  14.5km/h 15.0mph /  24.1km/h 89% 0.00in /  0mm
17:30 50.8 °F /  10.4 °C 47.7 °F /  8.7 °C 29.84in /  1010.4hPa NW 7.0mph /  11.3km/h 13.0mph /  20.9km/h 89% 0.00in /  0mm
17:35 50.8 °F /  10.4 °C 47.7 °F /  8.7 °C 29.84in /  1010.4hPa NNW 6.0mph /  9.7km/h 13.0mph /  20.9km/h 89% 0.00in /  0mm
17:40 50.7 °F /  10.4 °C 47.3 °F /  8.5 °C 29.84in /  1010.4hPa NNW 8.0mph /  12.9km/h 13.0mph /  20.9km/h 88% 0.00in /  0mm
17:45 50.8 °F /  10.4 °C 47.7 °F /  8.7 °C 29.85in /  1010.7hPa North 6.0mph /  9.7km/h 8.0mph /  12.9km/h 89% 0.00in /  0mm
17:50 50.9 °F /  10.5 °C 47.8 °F /  8.8 °C 29.84in /  1010.4hPa NW 5.0mph /  8km/h 12.0mph /  19.3km/h 89% 0.00in /  0mm
17:55 50.9 °F /  10.5 °C 47.8 °F /  8.8 °C 29.84in /  1010.4hPa NNW 7.0mph /  11.3km/h 11.0mph /  17.7km/h 89% 0.00in /  0mm
18:00 50.8 °F /  10.4 °C 47.7 °F /  8.7 °C 29.84in /  1010.4hPa North 5.0mph /  8km/h 10.0mph /  16.1km/h 89% 0.00in /  0mm
18:05 50.7 °F /  10.4 °C 47.6 °F /  8.7 °C 29.84in /  1010.4hPa North 8.0mph /  12.9km/h 13.0mph /  20.9km/h 89% 0.00in /  0mm
18:10 50.7 °F /  10.4 °C 47.6 °F /  8.7 °C 29.84in /  1010.4hPa NNW 7.0mph /  11.3km/h 14.0mph /  22.5km/h 89% 0.00in /  0mm
18:15 50.7 °F /  10.4 °C 47.6 °F /  8.7 °C 29.84in /  1010.4hPa NW 6.0mph /  9.7km/h 8.0mph /  12.9km/h 89% 0.00in /  0mm
18:16 50.7 °F /  10.4 °C 47.9 °F /  8.8 °C 29.84in /  1010.4hPa NNW 6.0mph /  9.7km/h 8.0mph /  12.9km/h 90% 0.00in /  0mm
18:21 50.6 °F /  10.3 °C 47.5 °F /  8.6 °C 29.84in /  1010.4hPa WNW 8.0mph /  12.9km/h 12.0mph /  19.3km/h 89% 0.00in /  0mm
18:26 50.4 °F /  10.2 °C 47.3 °F /  8.5 °C 29.84in /  1010.4hPa NW 12.0mph /  19.3km/h 12.0mph /  19.3km/h 89% 0.00in /  0mm
18:31 50.2 °F /  10.1 °C 47.1 °F /  8.4 °C 29.84in /  1010.4hPa NW 10.0mph /  16.1km/h 10.0mph /  16.1km/h 89% 0.00in /  0mm
18:36 50.1 °F /  10.1 °C 47.3 °F /  8.5 °C 29.84in /  1010.4hPa NW 6.0mph /  9.7km/h 9.0mph /  14.5km/h 90% 0.00in /  0mm
18:41 50.0 °F /  10 °C 47.2 °F /  8.4 °C 29.84in /  1010.4hPa NNW 7.0mph /  11.3km/h 12.0mph /  19.3km/h 90% 0.00in /  0mm
18:46 49.7 °F /  9.8 °C 46.9 °F /  8.3 °C 29.84in /  1010.4hPa NNE 13.0mph /  20.9km/h 13.0mph /  20.9km/h 90% 0.00in /  0mm
18:52 49.6 °F /  9.8 °C 46.8 °F /  8.2 °C 29.84in /  1010.4hPa NNW 7.0mph /  11.3km/h 13.0mph /  20.9km/h 90% 0.00in /  0mm
18:57 49.5 °F /  9.7 °C 46.7 °F /  8.2 °C 29.84in /  1010.4hPa NNW 7.0mph /  11.3km/h 11.0mph /  17.7km/h 90% 0.00in /  0mm
19:02 49.4 °F /  9.7 °C 46.9 °F /  8.3 °C 29.85in /  1010.7hPa NNW 7.0mph /  11.3km/h 9.0mph /  14.5km/h 91% 0.00in /  0mm
19:07 49.3 °F /  9.6 °C 46.5 °F /  8.1 °C 29.85in /  1010.7hPa NNW 7.0mph /  11.3km/h 10.0mph /  16.1km/h 90% 0.00in /  0mm
19:12 49.2 °F /  9.6 °C 46.7 °F /  8.2 °C 29.85in /  1010.7hPa North 7.0mph /  11.3km/h 10.0mph /  16.1km/h 91% 0.00in /  0mm
19:17 49.1 °F /  9.5 °C 46.6 °F /  8.1 °C 29.85in /  1010.7hPa NNE 6.0mph /  9.7km/h 17.0mph /  27.4km/h 91% 0.00in /  0mm
19:22 49.0 °F /  9.4 °C 46.5 °F /  8.1 °C 29.85in /  1010.7hPa North 8.0mph /  12.9km/h 14.0mph /  22.5km/h 91% 0.00in /  0mm
19:27 48.9 °F /  9.4 °C 46.4 °F /  8 °C 29.85in /  1010.7hPa NNE 6.0mph /  9.7km/h 16.0mph /  25.7km/h 91% 0.00in /  0mm
19:32 48.8 °F /  9.3 °C 46.3 °F /  7.9 °C 29.85in /  1010.7hPa NNW 9.0mph /  14.5km/h 11.0mph /  17.7km/h 91% 0.00in /  0mm
19:37 48.8 °F /  9.3 °C 46.3 °F /  7.9 °C 29.85in /  1010.7hPa NNW 7.0mph /  11.3km/h 10.0mph /  16.1km/h 91% 0.00in /  0mm
19:42 48.7 °F /  9.3 °C 46.2 °F /  7.9 °C 29.85in /  1010.7hPa North 2.0mph /  3.2km/h 8.0mph /  12.9km/h 91% 0.00in /  0mm
19:47 48.6 °F /  9.2 °C 46.4 °F /  8 °C 29.85in /  1010.7hPa NNW 7.0mph /  11.3km/h 7.0mph /  11.3km/h 92% 0.00in /  0mm
19:52 48.4 °F /  9.1 °C 46.2 °F /  7.9 °C 29.85in /  1010.7hPa NW 6.0mph /  9.7km/h 10.0mph /  16.1km/h 92% 0.00in /  0mm
19:57 48.3 °F /  9.1 °C 45.8 °F /  7.7 °C 29.86in /  1011.1hPa NNW 9.0mph /  14.5km/h 14.0mph /  22.5km/h 91% 0.00in /  0mm
20:02 48.3 °F /  9.1 °C 45.8 °F /  7.7 °C 29.86in /  1011.1hPa NW 4.0mph /  6.4km/h 11.0mph /  17.7km/h 91% 0.00in /  0mm
20:07 48.2 °F /  9 °C 45.7 °F /  7.6 °C 29.87in /  1011.4hPa NW 9.0mph /  14.5km/h 10.0mph /  16.1km/h 91% 0.00in /  0mm
20:12 48.1 °F /  8.9 °C 45.6 °F /  7.6 °C 29.87in /  1011.4hPa NNW 4.0mph /  6.4km/h 9.0mph /  14.5km/h 91% 0.00in /  0mm
20:18 48.0 °F /  8.9 °C 45.8 °F /  7.7 °C 29.87in /  1011.4hPa North 11.0mph /  17.7km/h 15.0mph /  24.1km/h 92% 0.00in /  0mm
20:23 47.9 °F /  8.8 °C 45.7 °F /  7.6 °C 29.88in /  1011.7hPa NW 7.0mph /  11.3km/h 11.0mph /  17.7km/h 92% 0.00in /  0mm
20:28 47.9 °F /  8.8 °C 45.7 °F /  7.6 °C 29.88in /  1011.7hPa NNW 4.0mph /  6.4km/h 7.0mph /  11.3km/h 92% 0.00in /  0mm
20:33 47.9 °F /  8.8 °C 45.7 °F /  7.6 °C 29.88in /  1011.7hPa NNW 8.0mph /  12.9km/h 9.0mph /  14.5km/h 92% 0.00in /  0mm
20:38 47.8 °F /  8.8 °C 45.6 °F /  7.6 °C 29.89in /  1012.1hPa NW 5.0mph /  8km/h 10.0mph /  16.1km/h 92% 0.00in /  0mm
20:43 47.8 °F /  8.8 °C 45.6 °F /  7.6 °C 29.89in /  1012.1hPa NNW 14.0mph /  22.5km/h 17.0mph /  27.4km/h 92% 0.00in /  0mm
20:45 47.8 °F /  8.8 °C 45.3 °F /  7.4 °C 29.89in /  1012.1hPa North 10.0mph /  16.1km/h 17.0mph /  27.4km/h 91% 0.00in /  0mm
20:50 47.7 °F /  8.7 °C 45.2 °F /  7.3 °C 29.89in /  1012.1hPa North 12.0mph /  19.3km/h 14.0mph /  22.5km/h 91% 0.00in /  0mm
20:52 47.7 °F /  8.7 °C 44.9 °F /  7.2 °C 29.89in /  1012.1hPa NW 7.0mph /  11.3km/h 14.0mph /  22.5km/h 90% 0.00in /  0mm
20:58 47.7 °F /  8.7 °C 45.2 °F /  7.3 °C 29.90in /  1012.4hPa NW 8.0mph /  12.9km/h 11.0mph /  17.7km/h 91% 0.00in /  0mm
21:03 47.7 °F /  8.7 °C 44.9 °F /  7.2 °C 29.90in /  1012.4hPa North 11.0mph /  17.7km/h 11.0mph /  17.7km/h 90% 0.00in /  0mm
21:08 47.7 °F /  8.7 °C 44.9 °F /  7.2 °C 29.90in /  1012.4hPa North 7.0mph /  11.3km/h 13.0mph /  20.9km/h 90% 0.00in /  0mm
21:13 47.8 °F /  8.8 °C 45.0 °F /  7.2 °C 29.90in /  1012.4hPa WNW 3.0mph /  4.8km/h 10.0mph /  16.1km/h 90% 0.00in /  0mm
21:18 47.8 °F /  8.8 °C 44.7 °F /  7.1 °C 29.90in /  1012.4hPa NNE 10.0mph /  16.1km/h 10.0mph /  16.1km/h 89% 0.00in /  0mm
21:23 47.9 °F /  8.8 °C 44.5 °F /  6.9 °C 29.90in /  1012.4hPa NNW 4.0mph /  6.4km/h 9.0mph /  14.5km/h 88% 0.00in /  0mm
21:28 48.0 °F /  8.9 °C 44.6 °F /  7 °C 29.90in /  1012.4hPa NNW 6.0mph /  9.7km/h 12.0mph /  19.3km/h 88% 0.00in /  0mm
21:33 48.0 °F /  8.9 °C 44.6 °F /  7 °C 29.90in /  1012.4hPa NW 6.0mph /  9.7km/h 10.0mph /  16.1km/h 88% 0.00in /  0mm
21:38 48.0 °F /  8.9 °C 44.6 °F /  7 °C 29.90in /  1012.4hPa North 8.0mph /  12.9km/h 8.0mph /  12.9km/h 88% 0.00in /  0mm
21:43 48.0 °F /  8.9 °C 44.3 °F /  6.8 °C 29.90in /  1012.4hPa NNE 9.0mph /  14.5km/h 11.0mph /  17.7km/h 87% 0.00in /  0mm
21:48 48.0 °F /  8.9 °C 44.3 °F /  6.8 °C 29.90in /  1012.4hPa NNW 9.0mph /  14.5km/h 9.0mph /  14.5km/h 87% 0.00in /  0mm
21:53 48.1 °F /  8.9 °C 44.4 °F /  6.9 °C 29.90in /  1012.4hPa NNE 6.0mph /  9.7km/h 10.0mph /  16.1km/h 87% 0.00in /  0mm
21:58 48.1 °F /  8.9 °C 44.4 °F /  6.9 °C 29.90in /  1012.4hPa North 10.0mph /  16.1km/h 10.0mph /  16.1km/h 87% 0.00in /  0mm
22:03 48.1 °F /  8.9 °C 44.4 °F /  6.9 °C 29.91in /  1012.8hPa North 7.0mph /  11.3km/h 8.0mph /  12.9km/h 87% 0.00in /  0mm
22:08 48.1 °F /  8.9 °C 44.4 °F /  6.9 °C 29.91in /  1012.8hPa NNE 4.0mph /  6.4km/h 12.0mph /  19.3km/h 87% 0.00in /  0mm
22:13 48.1 °F /  8.9 °C 44.4 °F /  6.9 °C 29.91in /  1012.8hPa NW 5.0mph /  8km/h 10.0mph /  16.1km/h 87% 0.00in /  0mm
22:18 48.1 °F /  8.9 °C 44.4 °F /  6.9 °C 29.91in /  1012.8hPa NNE 9.0mph /  14.5km/h 14.0mph /  22.5km/h 87% 0.00in /  0mm
22:23 48.1 °F /  8.9 °C 44.1 °F /  6.7 °C 29.91in /  1012.8hPa NW 4.0mph /  6.4km/h 8.0mph /  12.9km/h 86% 0.00in /  0mm
22:28 48.1 °F /  8.9 °C 44.4 °F /  6.9 °C 29.91in /  1012.8hPa NNE 4.0mph /  6.4km/h 7.0mph /  11.3km/h 87% 0.00in /  0mm
22:34 48.1 °F /  8.9 °C 44.4 °F /  6.9 °C 29.90in /  1012.4hPa NNW 3.0mph /  4.8km/h 8.0mph /  12.9km/h 87% 0.00in /  0mm
22:39 48.1 °F /  8.9 °C 44.4 °F /  6.9 °C 29.90in /  1012.4hPa West 3.0mph /  4.8km/h 6.0mph /  9.7km/h 87% 0.00in /  0mm
22:44 48.1 °F /  8.9 °C 44.4 °F /  6.9 °C 29.90in /  1012.4hPa NNW 6.0mph /  9.7km/h 9.0mph /  14.5km/h 87% 0.00in /  0mm
22:49 48.1 °F /  8.9 °C 44.4 °F /  6.9 °C 29.90in /  1012.4hPa NNW 11.0mph /  17.7km/h 14.0mph /  22.5km/h 87% 0.00in /  0mm
22:54 48.1 °F /  8.9 °C 44.4 °F /  6.9 °C 29.90in /  1012.4hPa North 3.0mph /  4.8km/h 7.0mph /  11.3km/h 87% 0.00in /  0mm
22:59 48.1 °F /  8.9 °C 44.4 °F /  6.9 °C 29.90in /  1012.4hPa NNW 6.0mph /  9.7km/h 8.0mph /  12.9km/h 87% 0.00in /  0mm
23:04 48.1 °F /  8.9 °C 44.4 °F /  6.9 °C 29.90in /  1012.4hPa NW 5.0mph /  8km/h 9.0mph /  14.5km/h 87% 0.00in /  0mm
23:09 48.1 °F /  8.9 °C 44.4 °F /  6.9 °C 29.90in /  1012.4hPa NNW 6.0mph /  9.7km/h 11.0mph /  17.7km/h 87% 0.00in /  0mm
23:14 48.0 °F /  8.9 °C 44.3 °F /  6.8 °C 29.90in /  1012.4hPa NNW 9.0mph /  14.5km/h 10.0mph /  16.1km/h 87% 0.00in /  0mm
23:19 48.0 °F /  8.9 °C 44.6 °F /  7 °C 29.90in /  1012.4hPa NW 7.0mph /  11.3km/h 9.0mph /  14.5km/h 88% 0.00in /  0mm
23:24 47.9 °F /  8.8 °C 44.5 °F /  6.9 °C 29.90in /  1012.4hPa NW 5.0mph /  8km/h 7.0mph /  11.3km/h 88% 0.00in /  0mm
23:29 47.8 °F /  8.8 °C 44.4 °F /  6.9 °C 29.90in /  1012.4hPa NNW 5.0mph /  8km/h 10.0mph /  16.1km/h 88% 0.00in /  0mm
23:34 47.8 °F /  8.8 °C 44.4 °F /  6.9 °C 29.90in /  1012.4hPa North 6.0mph /  9.7km/h 7.0mph /  11.3km/h 88% 0.00in /  0mm
23:39 47.7 °F /  8.7 °C 44.3 °F /  6.8 °C 29.90in /  1012.4hPa NW 7.0mph /  11.3km/h 10.0mph /  16.1km/h 88% 0.00in /  0mm
23:44 47.7 °F /  8.7 °C 44.3 °F /  6.8 °C 29.90in /  1012.4hPa NW 3.0mph /  4.8km/h 9.0mph /  14.5km/h 88% 0.00in /  0mm
23:49 47.8 °F /  8.8 °C 44.1 °F /  6.7 °C 29.90in /  1012.4hPa NW 6.0mph /  9.7km/h 8.0mph /  12.9km/h 87% 0.00in /  0mm
23:54 47.8 °F /  8.8 °C 44.1 °F /  6.7 °C 29.90in /  1012.4hPa NNW 4.0mph /  6.4km/h 8.0mph /  12.9km/h 87% 0.00in /  0mm
23:59 47.8 °F /  8.8 °C 44.1 °F /  6.7 °C 29.90in /  1012.4hPa NNW 2.0mph /  3.2km/h 7.0mph /  11.3km/h 87% 0.00in /  0mm
Compliments of Weather Underground